createdAt,value
2018-07-12T00:02:12.843Z,2.60
2018-07-12T00:04:40.609Z,2.90
2018-07-12T00:07:08.389Z,1.87
2018-07-12T00:09:36.073Z,2.73
2018-07-12T00:12:03.758Z,2.60
2018-07-12T00:14:31.613Z,3.07
2018-07-12T00:16:59.285Z,2.60
2018-07-12T00:19:26.954Z,2.73
2018-07-12T00:21:54.894Z,2.57
2018-07-12T00:24:22.562Z,3.30
2018-07-12T00:26:50.233Z,3.60
2018-07-12T00:29:18.277Z,3.43
2018-07-12T00:31:45.943Z,3.60
2018-07-12T00:34:13.612Z,3.70
2018-07-12T00:36:41.406Z,3.90
2018-07-12T00:39:09.090Z,3.73
2018-07-12T00:41:36.853Z,4.17
2018-07-12T00:44:04.518Z,3.50
2018-07-12T00:46:32.205Z,4.27
2018-07-12T00:48:59.913Z,3.60
2018-07-12T00:51:27.662Z,4.10
2018-07-12T00:53:55.435Z,4.00
2018-07-12T00:56:23.164Z,3.40
2018-07-12T00:58:50.957Z,4.67
2018-07-12T01:01:18.629Z,4.10
2018-07-12T01:03:46.326Z,4.47
2018-07-12T01:06:13.990Z,4.53
2018-07-12T01:08:41.685Z,5.10
2018-07-12T01:11:09.379Z,4.37
2018-07-12T01:13:37.241Z,4.97
2018-07-12T01:16:04.932Z,5.80
2018-07-12T01:18:32.610Z,4.80
2018-07-12T01:21:00.323Z,4.90
2018-07-12T01:23:28.042Z,5.53
2018-07-12T01:25:55.705Z,5.60
2018-07-12T01:28:23.421Z,6.83
2018-07-12T01:30:51.165Z,5.40
2018-07-12T01:33:18.828Z,6.60
2018-07-12T01:35:46.516Z,7.03
2018-07-12T01:38:14.200Z,5.80
2018-07-12T01:40:41.893Z,6.93
2018-07-12T01:43:09.737Z,7.20
2018-07-12T01:45:37.636Z,6.57
2018-07-12T01:48:05.305Z,5.63
2018-07-12T01:50:33.079Z,6.40
2018-07-12T01:53:00.770Z,6.77
2018-07-12T01:55:28.469Z,6.73
2018-07-12T01:57:56.134Z,7.30
2018-07-12T02:00:23.828Z,7.93
2018-07-12T02:02:51.495Z,8.97
2018-07-12T02:05:19.285Z,8.30
2018-07-12T02:07:47.309Z,8.77
2018-07-12T02:10:15.091Z,9.40
2018-07-12T02:12:42.866Z,8.30
2018-07-12T02:15:10.553Z,9.10
2018-07-12T02:17:38.253Z,9.90
2018-07-12T02:20:05.916Z,9.23
2018-07-12T02:22:33.581Z,8.77
2018-07-12T02:25:01.525Z,9.33
2018-07-12T02:27:29.337Z,11.40
2018-07-12T02:29:57.121Z,10.37
2018-07-12T02:32:24.791Z,11.43
2018-07-12T02:34:52.461Z,11.60
2018-07-12T02:37:20.325Z,11.97
2018-07-12T02:39:48.102Z,12.60
2018-07-12T02:42:15.885Z,12.80
2018-07-12T02:44:43.765Z,12.13
2018-07-12T02:47:11.438Z,11.50
2018-07-12T02:49:39.218Z,12.43
2018-07-12T02:52:06.909Z,11.93
2018-07-12T02:54:34.613Z,12.77
2018-07-12T02:57:02.335Z,13.80
2018-07-12T02:59:30.313Z,14.27
2018-07-12T03:01:57.986Z,15.03
2018-07-12T03:04:25.662Z,15.07
2018-07-12T03:06:53.361Z,14.07
2018-07-12T03:09:21.072Z,14.67
2018-07-12T03:11:49.420Z,15.43
2018-07-12T03:14:17.090Z,16.60
2018-07-12T03:16:44.870Z,15.87
2018-07-12T03:19:12.569Z,13.40
2018-07-12T03:21:40.321Z,13.90
2018-07-12T03:24:08.097Z,12.07
2018-07-12T03:26:35.794Z,12.23
2018-07-12T03:29:03.539Z,13.40
2018-07-12T03:31:31.213Z,11.20
2018-07-12T03:33:58.908Z,11.53
2018-07-12T03:36:26.885Z,10.50
2018-07-12T03:38:54.492Z,11.07
2018-07-12T03:41:22.205Z,10.17
2018-07-12T03:43:50.114Z,10.80
2018-07-12T03:46:17.809Z,10.93
2018-07-12T03:48:45.484Z,9.90
2018-07-12T03:51:13.226Z,9.10
2018-07-12T03:53:40.898Z,10.10
2018-07-12T03:56:08.626Z,10.03
2018-07-12T03:58:36.633Z,8.97
2018-07-12T04:01:04.246Z,9.80
2018-07-12T04:03:31.962Z,10.57
2018-07-12T04:05:59.600Z,9.33
2018-07-12T04:08:27.557Z,11.40
2018-07-12T04:10:55.285Z,11.33
2018-07-12T04:13:23.008Z,11.53
2018-07-12T04:15:50.706Z,10.30
2018-07-12T04:18:18.397Z,9.00
2018-07-12T04:20:46.073Z,9.70
2018-07-12T04:23:13.761Z,9.70
2018-07-12T04:25:41.481Z,8.73
2018-07-12T04:28:09.164Z,7.67
2018-07-12T04:30:36.852Z,8.10
2018-07-12T04:33:04.513Z,7.23
2018-07-12T04:35:32.205Z,7.17
2018-07-12T04:37:59.960Z,6.77
2018-07-12T04:40:27.625Z,6.10
2018-07-12T04:42:55.301Z,5.43
2018-07-12T04:45:22.988Z,6.10
2018-07-12T04:47:50.762Z,6.03
2018-07-12T04:50:18.657Z,4.93
2018-07-12T04:52:46.609Z,5.10
2018-07-12T04:55:14.302Z,4.80
2018-07-12T04:57:42.181Z,3.70
2018-07-12T05:00:09.841Z,3.73
2018-07-12T05:02:37.514Z,5.63
2018-07-12T05:05:05.201Z,3.70
2018-07-12T05:07:32.878Z,3.60
2018-07-12T05:10:00.549Z,3.80
2018-07-12T05:12:28.434Z,3.17
2018-07-12T05:14:56.206Z,3.10
2018-07-12T05:17:23.881Z,2.57
2018-07-12T05:19:51.575Z,1.87
2018-07-12T05:22:19.332Z,2.83
2018-07-12T05:24:47.017Z,2.30
2018-07-12T05:27:14.701Z,2.13
2018-07-12T05:29:42.370Z,2.20
2018-07-12T05:32:10.062Z,2.03
2018-07-12T05:34:37.805Z,1.90
2018-07-12T05:37:06.528Z,1.77
2018-07-12T05:39:35.085Z,1.83
2018-07-12T05:42:03.605Z,1.70
2018-07-12T05:44:32.130Z,2.23
2018-07-12T05:47:00.673Z,2.27
2018-07-12T05:49:29.441Z,2.40
2018-07-12T05:51:58.088Z,2.27
2018-07-12T05:54:27.502Z,2.53
2018-07-12T05:56:56.286Z,2.20
2018-07-12T05:59:25.046Z,1.57
2018-07-12T06:02:05.337Z,1.50
2018-07-12T06:04:34.090Z,2.47
2018-07-12T06:07:02.894Z,1.83
2018-07-12T06:09:31.656Z,1.97
2018-07-12T06:12:00.554Z,1.50
2018-07-12T06:14:29.273Z,1.50
2018-07-12T06:16:58.098Z,2.07
2018-07-12T06:19:26.866Z,1.67
2018-07-12T06:21:55.625Z,1.63
2018-07-12T06:24:24.600Z,1.70
2018-07-12T06:26:53.366Z,1.37
2018-07-12T06:29:22.117Z,1.30
2018-07-12T06:31:50.910Z,1.60
2018-07-12T06:34:19.689Z,1.70
2018-07-12T06:36:48.478Z,1.30
2018-07-12T06:39:17.243Z,1.53
2018-07-12T06:41:46.010Z,1.83
2018-07-12T06:44:14.783Z,1.53
2018-07-12T06:46:43.541Z,1.43
2018-07-12T06:49:12.579Z,1.40
2018-07-12T06:51:41.337Z,1.23
2018-07-12T06:54:10.094Z,1.30
2018-07-12T06:56:38.894Z,1.00
2018-07-12T06:59:07.650Z,1.10
2018-07-12T07:01:36.439Z,0.97
2018-07-12T07:04:05.204Z,0.97
2018-07-12T07:06:33.949Z,1.23
2018-07-12T07:09:02.906Z,1.13
2018-07-12T07:11:31.669Z,1.10
2018-07-12T07:14:00.450Z,1.37
2018-07-12T07:16:29.303Z,1.40
2018-07-12T07:18:58.101Z,1.60
2018-07-12T07:21:26.781Z,1.50
2018-07-12T07:23:55.433Z,1.30
2018-07-12T07:26:24.297Z,1.43
2018-07-12T07:28:53.025Z,1.23
2018-07-12T07:31:21.806Z,1.63
2018-07-12T07:33:50.812Z,1.20
2018-07-12T07:36:19.913Z,1.20
2018-07-12T07:38:48.683Z,1.03
2018-07-12T07:41:17.468Z,1.03
2018-07-12T07:43:46.233Z,1.70
2018-07-12T07:46:15.017Z,1.33
2018-07-12T07:48:43.875Z,1.37
2018-07-12T07:51:12.604Z,1.30
2018-07-12T07:53:41.730Z,1.47
2018-07-12T07:56:10.497Z,1.50
2018-07-12T07:58:39.329Z,1.37
2018-07-12T08:01:08.122Z,1.60
2018-07-12T08:03:36.886Z,1.47
2018-07-12T08:06:06.038Z,1.43
2018-07-12T08:08:34.817Z,1.30
2018-07-12T08:11:03.646Z,1.83
2018-07-12T08:13:32.426Z,1.40
2018-07-12T08:16:01.182Z,1.30
2018-07-12T08:18:30.046Z,1.30
2018-07-12T08:20:58.837Z,1.37
2018-07-12T08:23:27.760Z,1.20
2018-07-12T08:25:56.549Z,1.27
2018-07-12T08:28:26.849Z,1.70
2018-07-12T08:30:55.898Z,1.57
2018-07-12T08:33:25.152Z,1.50
2018-07-12T08:35:54.010Z,1.70
2018-07-12T08:38:22.769Z,1.47
2018-07-12T08:40:51.557Z,2.03
2018-07-12T08:43:20.321Z,1.80
2018-07-12T08:45:49.120Z,2.90
2018-07-12T08:48:18.025Z,3.30
2018-07-12T08:50:46.817Z,4.00
2018-07-12T08:53:15.674Z,4.77
2018-07-12T08:55:44.419Z,4.77
2018-07-12T08:58:13.209Z,5.30
2018-07-12T09:00:41.971Z,5.63
2018-07-12T09:03:11.169Z,4.93
2018-07-12T09:05:39.946Z,5.33
2018-07-12T09:08:08.735Z,5.80
2018-07-12T09:10:37.493Z,4.73
2018-07-12T09:13:06.331Z,5.20
2018-07-12T09:15:35.135Z,4.17
2018-07-12T09:18:03.933Z,3.40
2018-07-12T09:20:32.729Z,3.50
2018-07-12T09:23:01.536Z,4.10
2018-07-12T09:25:30.382Z,4.20
2018-07-12T09:27:59.140Z,3.67
2018-07-12T09:30:27.944Z,4.30
2018-07-12T09:32:56.742Z,3.93
2018-07-12T09:35:25.521Z,5.20
2018-07-12T09:37:54.277Z,5.00
2018-07-12T09:40:23.041Z,4.17
2018-07-12T09:42:52.154Z,4.50
2018-07-12T09:45:20.913Z,4.10
2018-07-12T09:47:49.669Z,4.17
2018-07-12T09:50:18.555Z,2.87
2018-07-12T09:52:47.341Z,2.37
2018-07-12T09:55:16.116Z,3.40
2018-07-12T09:57:56.458Z,2.93
2018-07-12T10:00:31.065Z,3.47
2018-07-12T10:03:05.436Z,2.83
2018-07-12T10:05:39.629Z,3.83
2018-07-12T10:08:14.029Z,3.10
2018-07-12T10:10:48.505Z,3.23
2018-07-12T10:13:23.043Z,3.03
2018-07-12T10:15:57.281Z,4.47
2018-07-12T10:18:28.512Z,2.97
2018-07-12T10:20:57.720Z,2.90
2018-07-12T10:23:26.581Z,2.80
2018-07-12T10:25:55.838Z,2.47
2018-07-12T10:28:24.622Z,3.37
2018-07-12T10:30:53.369Z,3.37
2018-07-12T10:33:22.254Z,2.50
2018-07-12T10:35:51.018Z,2.17
2018-07-12T10:38:19.950Z,2.70
2018-07-12T10:40:48.717Z,2.70
2018-07-12T10:43:17.525Z,2.70
2018-07-12T10:45:46.349Z,2.50
2018-07-12T10:48:15.153Z,2.67
2018-07-12T10:50:43.955Z,2.80
2018-07-12T10:53:12.762Z,2.53
2018-07-12T10:55:41.545Z,2.33
2018-07-12T10:58:10.581Z,2.33
2018-07-12T11:00:39.462Z,2.90
2018-07-12T11:03:08.217Z,2.00
2018-07-12T11:05:36.998Z,2.20
2018-07-12T11:08:05.760Z,2.30
2018-07-12T11:10:34.600Z,2.97
2018-07-12T11:13:11.773Z,2.20
2018-07-12T11:15:40.810Z,2.60
2018-07-12T11:18:09.573Z,3.10
2018-07-12T11:20:38.379Z,3.90
2018-07-12T11:23:07.269Z,2.83
2018-07-12T11:25:36.069Z,4.50
2018-07-12T11:28:05.152Z,4.07
2018-07-12T11:30:34.397Z,4.20
2018-07-12T11:33:19.602Z,4.13
2018-07-12T11:35:48.363Z,3.90
2018-07-12T11:38:17.117Z,5.03
2018-07-12T11:40:46.098Z,4.80
2018-07-12T11:43:14.848Z,5.00
2018-07-12T11:45:43.680Z,4.30
2018-07-12T11:48:12.470Z,5.93
2018-07-12T11:50:41.233Z,4.40
2018-07-12T11:53:10.091Z,4.30
2018-07-12T11:55:38.901Z,4.50
2018-07-12T11:58:07.673Z,5.90
2018-07-12T12:00:36.495Z,4.83
2018-07-12T12:03:05.293Z,5.67
2018-07-12T12:05:34.097Z,6.10
2018-07-12T12:08:02.892Z,6.23
2018-07-12T12:10:31.747Z,5.57
2018-07-12T12:13:00.505Z,6.03
2018-07-12T12:15:29.496Z,6.07
2018-07-12T12:17:58.310Z,4.83
2018-07-12T12:20:27.430Z,6.27
2018-07-12T12:22:56.312Z,6.80
2018-07-12T12:25:25.853Z,5.40
2018-07-12T12:27:55.362Z,5.60
2018-07-12T12:30:24.113Z,5.90
2018-07-12T12:32:52.894Z,6.07
2018-07-12T12:35:21.674Z,5.53
2018-07-12T12:37:50.722Z,6.50
2018-07-12T12:40:19.492Z,6.53
2018-07-12T12:42:48.282Z,6.67
2018-07-12T12:45:17.169Z,7.37
2018-07-12T12:47:45.933Z,6.27
2018-07-12T12:50:14.689Z,7.60
2018-07-12T12:52:43.664Z,6.50
2018-07-12T12:55:12.445Z,7.57
2018-07-12T12:57:41.281Z,6.67
2018-07-12T13:00:10.108Z,7.20
2018-07-12T13:02:38.826Z,7.57
2018-07-12T13:05:07.620Z,6.20
2018-07-12T13:07:36.440Z,6.33
2018-07-12T13:10:05.406Z,6.10
2018-07-12T13:12:34.221Z,6.03
2018-07-12T13:15:03.090Z,6.77
2018-07-12T13:17:31.849Z,6.43
2018-07-12T13:20:00.640Z,6.80
2018-07-12T13:22:29.384Z,6.33
2018-07-12T13:24:58.189Z,6.80
2018-07-12T13:27:26.990Z,6.73
2018-07-12T13:29:55.794Z,6.60
2018-07-12T13:32:24.553Z,6.43
2018-07-12T13:34:53.402Z,6.40
2018-07-12T13:37:22.193Z,6.63
2018-07-12T13:39:50.897Z,5.93
2018-07-12T13:42:19.549Z,5.70
2018-07-12T13:44:48.342Z,7.30
2018-07-12T13:47:17.296Z,6.63
2018-07-12T13:49:46.092Z,6.10
2018-07-12T13:52:14.943Z,5.90
2018-07-12T13:54:43.710Z,5.27
2018-07-12T13:57:12.486Z,5.57
2018-07-12T13:59:41.249Z,4.73
2018-07-12T14:02:10.106Z,5.20
2018-07-12T14:04:38.866Z,4.30
2018-07-12T14:07:07.641Z,4.80
2018-07-12T14:09:36.509Z,5.63
2018-07-12T14:12:05.261Z,4.70
2018-07-12T14:14:34.041Z,5.40
2018-07-12T14:17:02.855Z,6.60
2018-07-12T14:19:31.625Z,5.63
2018-07-12T14:22:00.510Z,6.20
2018-07-12T14:24:29.522Z,5.57
2018-07-12T14:26:58.317Z,6.97
2018-07-12T14:29:28.749Z,6.20
2018-07-12T14:31:57.526Z,7.60
2018-07-12T14:34:26.322Z,7.20
2018-07-12T14:36:55.132Z,7.50
2018-07-12T14:39:23.759Z,7.53
2018-07-12T14:41:52.689Z,7.67
2018-07-12T14:44:21.454Z,8.90
2018-07-12T14:46:50.038Z,7.13
2018-07-12T14:49:18.762Z,7.17
2018-07-12T14:51:47.565Z,9.33
2018-07-12T14:54:16.343Z,8.33
2018-07-12T14:56:45.170Z,8.97
2018-07-12T14:59:14.054Z,8.17
2018-07-12T15:01:42.882Z,6.87
2018-07-12T15:04:11.769Z,8.67
2018-07-12T15:06:40.650Z,7.17
2018-07-12T15:09:09.664Z,8.57
2018-07-12T15:11:38.569Z,6.57
2018-07-12T15:14:07.600Z,6.07
2018-07-12T15:16:36.356Z,6.43
2018-07-12T15:19:05.968Z,2.33
2018-07-12T15:21:34.787Z,0.40
2018-07-12T15:24:03.615Z,0.30
2018-07-12T15:26:32.412Z,0.23
2018-07-12T15:29:01.213Z,0.30
2018-07-12T15:31:30.376Z,0.93
2018-07-12T15:33:59.121Z,0.20
2018-07-12T15:36:27.926Z,0.73
2018-07-12T15:38:56.824Z,0.20
2018-07-12T15:41:25.500Z,0.30
2018-07-12T15:43:54.218Z,0.20
2018-07-12T15:46:23.020Z,0.30
2018-07-12T15:48:51.926Z,0.30
2018-07-12T15:51:21.033Z,0.37
2018-07-12T15:53:49.837Z,0.20
2018-07-12T15:56:18.588Z,0.20
2018-07-12T15:58:47.442Z,0.20
2018-07-12T16:01:16.246Z,1.33
2018-07-12T16:03:45.008Z,0.50
2018-07-12T16:06:13.842Z,0.20
2018-07-12T16:08:42.747Z,0.20
2018-07-12T16:11:11.522Z,0.80
2018-07-12T16:13:40.350Z,0.40
2018-07-12T16:16:09.324Z,0.30
2018-07-12T16:18:38.083Z,0.20
2018-07-12T16:21:06.860Z,0.20
2018-07-12T16:23:35.635Z,2.20
2018-07-12T16:26:04.448Z,0.20
2018-07-12T16:28:33.233Z,0.43
2018-07-12T16:31:02.260Z,0.20
2018-07-12T16:33:31.039Z,0.30
2018-07-12T16:35:59.870Z,0.27
2018-07-12T16:38:28.608Z,0.30
2018-07-12T16:40:57.457Z,0.20
2018-07-12T16:43:26.200Z,0.23
2018-07-12T16:45:55.073Z,0.20
2018-07-12T16:48:23.956Z,0.60
2018-07-12T16:50:54.117Z,0.57
2018-07-12T16:53:23.113Z,0.73
2018-07-12T16:55:51.981Z,0.47
2018-07-12T16:58:20.754Z,0.20
2018-07-12T17:00:49.605Z,0.73
2018-07-12T17:03:18.414Z,0.20
2018-07-12T17:05:47.449Z,0.40
2018-07-12T17:08:16.325Z,0.67
2018-07-12T17:10:45.260Z,0.20
2018-07-12T17:13:14.032Z,0.20
2018-07-12T17:15:42.806Z,1.20
2018-07-12T17:18:11.628Z,0.40
2018-07-12T17:20:40.384Z,0.30
2018-07-12T17:23:09.152Z,0.20
2018-07-12T17:25:38.013Z,0.20
2018-07-12T17:28:07.001Z,0.70
2018-07-12T17:30:35.777Z,0.20
2018-07-12T17:33:04.767Z,0.20
2018-07-12T17:35:34.580Z,0.30
2018-07-12T17:38:03.227Z,0.30
2018-07-12T17:40:32.069Z,0.20
2018-07-12T17:43:00.852Z,0.20
2018-07-12T17:45:29.638Z,0.37
2018-07-12T17:47:58.392Z,0.30
2018-07-12T17:50:27.153Z,0.40
2018-07-12T17:52:55.942Z,0.27
2018-07-12T17:55:24.698Z,0.20
2018-07-12T17:57:53.483Z,0.30
2018-07-12T18:00:22.251Z,0.20
2018-07-12T18:02:51.282Z,0.50
2018-07-12T18:05:20.161Z,0.20
2018-07-12T18:07:48.909Z,0.20
2018-07-12T18:10:18.088Z,0.20
2018-07-12T18:12:47.088Z,0.40
2018-07-12T18:15:15.979Z,0.30
2018-07-12T18:17:44.618Z,0.30
2018-07-12T18:20:13.499Z,1.47
2018-07-12T18:22:42.276Z,0.53
2018-07-12T18:25:11.069Z,0.90
2018-07-12T18:27:39.906Z,0.20
2018-07-12T18:30:08.905Z,0.50
2018-07-12T18:32:38.136Z,0.73
2018-07-12T18:35:07.285Z,0.30
2018-07-12T18:37:36.326Z,0.73
2018-07-12T18:40:08.658Z,0.27
2018-07-12T18:42:37.517Z,1.63
2018-07-12T18:45:06.426Z,0.20
2018-07-12T18:47:35.250Z,0.20
2018-07-12T18:50:04.249Z,0.20
2018-07-12T18:52:33.009Z,1.10
2018-07-12T18:55:01.778Z,1.63
2018-07-12T18:57:30.636Z,0.20
2018-07-12T18:59:59.440Z,1.07
2018-07-12T19:02:28.216Z,0.97
2018-07-12T19:04:57.042Z,0.30
2018-07-12T19:07:25.832Z,0.20
2018-07-12T19:09:54.622Z,0.60
2018-07-12T19:12:23.406Z,1.17
2018-07-12T19:14:52.071Z,0.20
2018-07-12T19:17:20.665Z,0.50
2018-07-12T19:19:49.441Z,0.30
2018-07-12T19:22:18.245Z,0.20
2018-07-12T19:24:47.049Z,1.03
2018-07-12T19:27:15.812Z,0.30
2018-07-12T19:29:44.638Z,0.20
2018-07-12T19:32:13.645Z,0.30
2018-07-12T19:34:42.468Z,0.30
2018-07-12T19:37:11.254Z,0.87
2018-07-12T19:39:40.033Z,0.30
2018-07-12T19:42:08.817Z,0.83
2018-07-12T19:44:37.757Z,1.00
2018-07-12T19:47:06.661Z,0.97
2018-07-12T19:49:35.578Z,0.30
2018-07-12T19:52:04.416Z,0.60
2018-07-12T19:54:33.182Z,0.20
2018-07-12T19:57:01.966Z,0.30
2018-07-12T19:59:30.765Z,0.40
2018-07-12T20:02:00.086Z,0.30
2018-07-12T20:04:28.776Z,0.40
2018-07-12T20:06:57.553Z,0.20
2018-07-12T20:09:26.330Z,0.30
2018-07-12T20:11:55.080Z,0.57
2018-07-12T20:14:24.191Z,0.30
2018-07-12T20:16:52.980Z,2.33
2018-07-12T20:19:21.790Z,0.20
2018-07-12T20:21:50.585Z,0.40
2018-07-12T20:24:19.337Z,0.20
2018-07-12T20:26:48.224Z,2.00
2018-07-12T20:29:17.078Z,0.20
2018-07-12T20:31:45.893Z,0.37
2018-07-12T20:34:14.698Z,1.87
2018-07-12T20:36:43.482Z,0.30
2018-07-12T20:39:12.309Z,0.30
2018-07-12T20:41:41.473Z,0.20
2018-07-12T20:44:10.265Z,0.20
2018-07-12T20:46:39.299Z,0.53
2018-07-12T20:49:08.091Z,0.47
2018-07-12T20:51:36.918Z,0.50
2018-07-12T20:54:05.722Z,0.20
2018-07-12T20:56:34.621Z,0.20
2018-07-12T20:59:03.402Z,0.20
2018-07-12T21:01:32.154Z,0.20
2018-07-12T21:04:00.913Z,0.20
2018-07-12T21:06:29.725Z,0.30
2018-07-12T21:08:58.525Z,0.30
2018-07-12T21:11:27.316Z,0.20
2018-07-12T21:13:56.061Z,0.30
2018-07-12T21:16:24.920Z,0.30
2018-07-12T21:18:53.725Z,10.47
2018-07-12T21:21:22.510Z,9.97
2018-07-12T21:23:51.361Z,9.23
2018-07-12T21:26:20.271Z,10.57
2018-07-12T21:28:49.027Z,8.20
2018-07-12T21:31:17.732Z,9.20
2018-07-12T21:33:46.406Z,8.97
2018-07-12T21:36:15.162Z,10.13
2018-07-12T21:38:44.061Z,9.87
2018-07-12T21:41:12.842Z,9.67
2018-07-12T21:43:41.772Z,10.57
2018-07-12T21:46:10.584Z,10.70
2018-07-12T21:48:39.702Z,9.77
2018-07-12T21:51:08.583Z,10.50
2018-07-12T21:53:37.449Z,9.80
2018-07-12T21:56:06.064Z,10.23
2018-07-12T21:58:34.752Z,10.30
2018-07-12T22:01:03.540Z,9.50
2018-07-12T22:03:32.453Z,11.10
2018-07-12T22:06:01.052Z,9.97
2018-07-12T22:08:30.289Z,11.40
2018-07-12T22:11:01.352Z,10.20
2018-07-12T22:13:31.070Z,10.17
2018-07-12T22:15:59.878Z,10.87
2018-07-12T22:18:28.686Z,11.50
2018-07-12T22:20:57.663Z,11.30
2018-07-12T22:23:26.572Z,11.03
2018-07-12T22:25:55.365Z,11.43
2018-07-12T22:28:24.593Z,12.20
2018-07-12T22:30:53.381Z,11.40
2018-07-12T22:33:22.160Z,13.10
2018-07-12T22:35:50.920Z,12.00
2018-07-12T22:38:19.564Z,12.47
2018-07-12T22:40:48.385Z,11.03
2018-07-12T22:43:17.198Z,11.47
2018-07-12T22:45:45.986Z,13.07
2018-07-12T22:48:14.848Z,12.93
2018-07-12T22:50:43.697Z,11.10
2018-07-12T22:53:12.502Z,11.80
2018-07-12T22:55:41.412Z,11.87
2018-07-12T22:58:10.215Z,12.40
2018-07-12T23:00:39.041Z,12.17
2018-07-12T23:03:07.910Z,11.90
2018-07-12T23:05:36.814Z,11.97
2018-07-12T23:08:05.817Z,11.40
2018-07-12T23:10:34.609Z,12.80
2018-07-12T23:13:03.389Z,12.70
2018-07-12T23:15:33.185Z,11.67
2018-07-12T23:18:01.972Z,14.20
2018-07-12T23:20:30.783Z,11.03
2018-07-12T23:22:59.950Z,11.70
2018-07-12T23:25:28.752Z,12.00
2018-07-12T23:27:57.525Z,11.20
2018-07-12T23:30:26.338Z,10.43
2018-07-12T23:32:55.158Z,10.13
2018-07-12T23:35:23.961Z,9.70
2018-07-12T23:37:52.745Z,10.30
2018-07-12T23:40:21.860Z,11.40
2018-07-12T23:42:50.648Z,11.07
2018-07-12T23:45:19.515Z,10.93
2018-07-12T23:47:48.370Z,9.80
2018-07-12T23:50:17.149Z,9.67
2018-07-12T23:52:45.961Z,10.40
2018-07-12T23:55:14.785Z,10.90
2018-07-12T23:57:43.676Z,10.77
